Terminal Aerodrome Forecast
Issued by NWS Wilmington, OH

Home | Current Version | Previous Version | Text Only | Print | Product List | Glossary On
Versions: 1 2 3 4 5 6 7 8 9 10 11 12 13 14 15 16 17 18 19 20 21
246
FTUS41 KILN 262347
TAFDAY
TAF
KDAY 262347Z 2700/2724 22008KT P6SM VCSH SCT025 BKN060
      TEMPO 2700/2702 4SM -SHRA OVC025
     FM270400 22007KT P6SM SCT025 BKN035
     FM270700 23006KT P6SM BKN025
     FM271400 23009KT P6SM BKN035
     FM272200 17008KT P6SM VCTS BKN035CB=

USA.gov is the U.S. government's official web portal to all federal, state and local government web resources and services.